Time;durP1;ratioP1;P1;durP2;ratioP2;P2;SDS_P1;SDS_P2;PMS_P1;PMS_P2;Temp;Humidity;BMP_temperature;BMP_pressure;BME280_temperature;BME280_humidity;BME280_pressure;Samples;Min_cycle;Max_cycle;Signal;HPM_P1;HPM_P2
2021/10/26 00:00:30;;;;;;;58.80;3.28;;;6.30;1.00;;;;;;5073375;28;20338;-65
2021/10/26 00:02:57;;;;;;;61.42;4.85;;;6.40;1.00;;;;;;5073648;28;20309;-66
2021/10/26 00:05:25;;;;;;;58.90;3.50;;;6.40;1.00;;;;;;5072968;28;20209;-65
2021/10/26 00:07:52;;;;;;;58.58;2.78;;;6.40;1.00;;;;;;5073524;28;20208;-65
2021/10/26 00:10:19;;;;;;;58.47;2.90;;;6.40;1.00;;;;;;5073115;28;20243;-67
2021/10/26 00:12:46;;;;;;;58.30;2.90;;;6.40;1.00;;;;;;5073263;28;20217;-65
2021/10/26 00:15:13;;;;;;;58.45;2.83;;;6.40;1.00;;;;;;5073016;28;20227;-67
2021/10/26 00:17:40;;;;;;;58.58;3.00;;;6.30;1.00;;;;;;5052052;28;20212;-66
2021/10/26 00:20:08;;;;;;;58.90;3.50;;;6.30;1.00;;;;;;5053030;28;20218;-66
2021/10/26 00:22:36;;;;;;;58.63;2.90;;;6.30;1.00;;;;;;5053133;28;20209;-66
2021/10/26 00:25:04;;;;;;;59.38;3.10;;;6.20;1.00;;;;;;5052997;28;20212;-65
2021/10/26 00:27:31;;;;;;;58.50;2.75;;;6.10;1.00;;;;;;5052669;28;20202;-66
2021/10/26 00:29:57;;;;;;;58.55;2.70;;;6.10;1.00;;;;;;5052785;28;20256;-66
2021/10/26 00:32:25;;;;;;;58.38;3.00;;;6.10;1.00;;;;;;5052747;28;20288;-65
2021/10/26 00:34:52;;;;;;;58.40;2.80;;;6.10;1.00;;;;;;5052682;28;20252;-65
2021/10/26 00:37:19;;;;;;;58.33;2.78;;;6.10;1.00;;;;;;5052127;28;20205;-65
2021/10/26 00:39:49;;;;;;;58.65;2.55;;;6.20;1.00;;;;;;5052813;28;20310;-66
2021/10/26 00:42:16;;;;;;;58.38;2.85;;;6.20;1.00;;;;;;5052668;28;20205;-65
2021/10/26 00:44:43;;;;;;;58.35;2.70;;;6.30;1.00;;;;;;5052271;28;20610;-65
2021/10/26 00:47:10;;;;;;;59.20;3.83;;;6.40;1.00;;;;;;5051922;28;20207;-66
2021/10/26 00:49:37;;;;;;;59.63;4.45;;;6.40;1.00;;;;;;5069816;28;20312;-66
2021/10/26 00:52:05;;;;;;;58.55;2.85;;;6.50;1.00;;;;;;5072554;28;20649;-66
2021/10/26 00:54:32;;;;;;;58.70;2.75;;;6.60;1.00;;;;;;5072671;28;20201;-65
2021/10/26 00:57:01;;;;;;;59.10;3.30;;;6.60;1.00;;;;;;5071856;28;20262;-65
2021/10/26 00:59:28;;;;;;;58.65;2.78;;;6.70;1.00;;;;;;5072106;28;20320;-66
2021/10/26 01:01:55;;;;;;;58.35;2.83;;;6.70;1.00;;;;;;5072261;28;20295;-66
2021/10/26 01:04:22;;;;;;;58.60;3.00;;;6.70;1.00;;;;;;5071953;28;20292;-66
2021/10/26 01:06:50;;;;;;;58.35;2.80;;;6.70;1.00;;;;;;5071818;28;20243;-67
2021/10/26 01:09:17;;;;;;;58.25;2.80;;;6.80;1.00;;;;;;5072197;28;20332;-67
2021/10/26 01:11:44;;;;;;;58.38;2.50;;;6.90;1.00;;;;;;5072097;28;20305;-65
2021/10/26 01:14:13;;;;;;;58.58;2.70;;;6.90;1.00;;;;;;5071903;28;20209;-66
2021/10/26 01:16:40;;;;;;;58.70;3.00;;;7.00;1.00;;;;;;5071640;28;20211;-66
2021/10/26 01:19:08;;;;;;;58.80;3.20;;;7.00;1.00;;;;;;5071293;28;20312;-67
2021/10/26 01:21:36;;;;;;;59.22;3.30;;;7.10;1.00;;;;;;5071857;28;20231;-68
2021/10/26 01:24:03;;;;;;;58.35;2.80;;;7.10;1.00;;;;;;5071984;28;20212;-67
2021/10/26 01:26:33;;;;;;;59.20;2.75;;;7.20;1.00;;;;;;5071449;28;20298;-66
2021/10/26 01:29:00;;;;;;;58.50;2.80;;;7.20;1.00;;;;;;5071940;28;20232;-66
2021/10/26 01:31:27;;;;;;;58.50;2.80;;;7.20;1.00;;;;;;5071773;28;20237;-66
2021/10/26 01:33:54;;;;;;;58.35;2.67;;;7.30;1.00;;;;;;5072073;28;20205;-66
2021/10/26 01:36:22;;;;;;;58.58;3.50;;;7.30;1.00;;;;;;5071693;28;20581;-66
2021/10/26 01:38:50;;;;;;;58.47;2.78;;;7.30;1.00;;;;;;5071962;28;20210;-65
2021/10/26 01:41:18;;;;;;;58.42;3.10;;;7.30;1.00;;;;;;5071729;28;20215;-66
2021/10/26 01:43:45;;;;;;;58.80;3.00;;;7.30;1.00;;;;;;5071680;28;20217;-66
2021/10/26 01:46:11;;;;;;;58.50;2.95;;;7.30;1.00;;;;;;5071295;28;20205;-67
2021/10/26 01:48:38;;;;;;;58.35;2.72;;;7.40;1.00;;;;;;5071948;28;20297;-66
2021/10/26 01:51:05;;;;;;;58.50;2.75;;;7.40;1.00;;;;;;5069834;28;20230;-65
2021/10/26 01:53:32;;;;;;;58.33;2.88;;;7.40;1.00;;;;;;5071582;28;20243;-66
2021/10/26 01:56:01;;;;;;;58.70;3.20;;;7.40;1.00;;;;;;5072489;28;20205;-65
2021/10/26 01:58:28;;;;;;;58.55;3.20;;;7.40;1.00;;;;;;5075977;28;20297;-66
2021/10/26 02:00:55;;;;;;;58.67;2.75;;;7.50;1.00;;;;;;5075934;28;20274;-65
2021/10/26 02:03:21;;;;;;;58.60;3.20;;;7.50;1.00;;;;;;5075717;28;20693;-65
2021/10/26 02:05:48;;;;;;;58.40;2.90;;;7.40;1.00;;;;;;5075478;28;20206;-66
2021/10/26 02:08:15;;;;;;;58.27;2.73;;;7.50;1.00;;;;;;5075567;28;20212;-65
2021/10/26 02:10:42;;;;;;;58.47;2.70;;;7.50;1.00;;;;;;5075868;28;20574;-66
2021/10/26 02:13:10;;;;;;;58.50;2.95;;;7.40;1.00;;;;;;5075317;28;20252;-65
2021/10/26 02:15:37;;;;;;;58.30;2.80;;;7.40;1.00;;;;;;5075234;28;20647;-66
2021/10/26 02:18:04;;;;;;;58.50;3.05;;;7.40;1.00;;;;;;5075416;28;20700;-66
2021/10/26 02:20:31;;;;;;;58.80;3.63;;;7.40;1.00;;;;;;5075208;28;20313;-66
2021/10/26 02:22:58;;;;;;;58.58;2.80;;;7.40;1.00;;;;;;5075262;28;21013;-66
2021/10/26 02:25:25;;;;;;;58.38;2.90;;;7.40;1.00;;;;;;5075260;28;20290;-67
2021/10/26 02:27:51;;;;;;;58.33;2.90;;;7.50;1.00;;;;;;5075352;28;20247;-66
2021/10/26 02:30:20;;;;;;;58.42;2.88;;;7.50;1.00;;;;;;5074999;28;20492;-66
2021/10/26 02:32:47;;;;;;;58.65;3.10;;;7.50;1.00;;;;;;5075235;28;20201;-66
2021/10/26 02:35:13;;;;;;;58.60;2.75;;;7.40;1.00;;;;;;5075021;28;20300;-66
2021/10/26 02:37:40;;;;;;;58.47;3.00;;;7.40;1.00;;;;;;5074695;28;20217;-65
2021/10/26 02:40:08;;;;;;;58.70;3.00;;;7.40;1.00;;;;;;5075029;28;20312;-67
2021/10/26 02:42:35;;;;;;;58.58;2.55;;;7.40;1.00;;;;;;5075066;28;20630;-65
2021/10/26 02:45:04;;;;;;;58.47;2.75;;;7.40;1.00;;;;;;5074881;28;20212;-66
2021/10/26 02:47:32;;;;;;;58.50;2.67;;;7.30;1.00;;;;;;5074536;28;20201;-66
2021/10/26 02:49:59;;;;;;;58.58;2.83;;;7.30;1.00;;;;;;5074564;28;20229;-67
2021/10/26 02:52:26;;;;;;;58.40;2.70;;;7.20;1.00;;;;;;5075168;28;20301;-66
2021/10/26 02:54:53;;;;;;;58.40;2.78;;;7.20;1.00;;;;;;5074782;28;20210;-66
2021/10/26 02:57:19;;;;;;;58.40;2.85;;;7.10;1.00;;;;;;5074452;28;20209;-66
2021/10/26 02:59:46;;;;;;;58.40;2.67;;;7.10;1.00;;;;;;5074628;28;20221;-66
2021/10/26 03:02:13;;;;;;;58.38;2.60;;;7.10;1.00;;;;;;5074591;28;20301;-66
2021/10/26 03:04:41;;;;;;;58.35;2.78;;;7.10;1.00;;;;;;5074783;28;20292;-66
2021/10/26 03:07:08;;;;;;;58.67;2.78;;;7.10;1.00;;;;;;5074338;28;20209;-66
2021/10/26 03:09:35;;;;;;;58.63;3.00;;;7.10;1.00;;;;;;5074288;28;20744;-66
2021/10/26 03:12:02;;;;;;;58.60;2.72;;;7.10;1.00;;;;;;5074488;28;20297;-67
2021/10/26 03:14:29;;;;;;;58.28;2.63;;;7.10;1.00;;;;;;5074292;28;20262;-66
2021/10/26 03:16:56;;;;;;;58.47;2.58;;;7.10;1.00;;;;;;5073848;28;20240;-65
2021/10/26 03:19:23;;;;;;;58.28;2.58;;;7.10;1.00;;;;;;5074334;28;20232;-65
2021/10/26 03:21:51;;;;;;;58.38;2.58;;;7.00;1.00;;;;;;5074314;28;20237;-67
2021/10/26 03:24:18;;;;;;;58.60;2.70;;;7.00;1.00;;;;;;5074120;28;20212;-65
2021/10/26 03:26:45;;;;;;;58.38;2.70;;;7.00;1.00;;;;;;5074033;28;20212;-65
2021/10/26 03:29:12;;;;;;;58.47;2.80;;;7.00;1.00;;;;;;5073862;28;20237;-66
2021/10/26 03:31:39;;;;;;;58.58;2.88;;;6.90;1.00;;;;;;5073975;28;20324;-66
2021/10/26 03:34:05;;;;;;;58.70;2.80;;;7.00;1.00;;;;;;5074432;28;20205;-66
2021/10/26 03:36:33;;;;;;;58.38;2.90;;;6.90;1.00;;;;;;5074035;28;20588;-66
2021/10/26 03:39:01;;;;;;;58.55;2.92;;;6.90;1.00;;;;;;5073921;28;20274;-66
2021/10/26 03:41:28;;;;;;;66.10;3.63;;;6.90;1.00;;;;;;5074085;28;20262;-66
2021/10/26 03:43:55;;;;;;;58.58;2.75;;;6.90;1.00;;;;;;5073879;28;20289;-66
2021/10/26 03:46:22;;;;;;;58.45;2.80;;;6.90;1.00;;;;;;5073655;28;20208;-66
2021/10/26 03:48:49;;;;;;;58.33;2.97;;;7.00;1.00;;;;;;5073770;28;20202;-66
2021/10/26 03:51:16;;;;;;;58.58;2.92;;;7.00;1.00;;;;;;5073847;28;20319;-66
2021/10/26 03:53:43;;;;;;;58.67;3.10;;;7.00;1.00;;;;;;5073713;28;20213;-67
2021/10/26 03:56:11;;;;;;;58.60;3.13;;;7.00;1.00;;;;;;5073295;28;20292;-66
2021/10/26 03:58:40;;;;;;;59.13;3.00;;;7.00;1.00;;;;;;5073480;28;20317;-65
2021/10/26 04:01:07;;;;;;;59.25;3.05;;;7.00;1.00;;;;;;5073347;28;20318;-65
2021/10/26 04:03:34;;;;;;;58.60;2.90;;;7.00;1.00;;;;;;5073560;28;20218;-66
2021/10/26 04:06:03;;;;;;;58.50;2.60;;;7.10;1.00;;;;;;5073152;28;20204;-66
2021/10/26 04:08:32;;;;;;;58.47;2.50;;;7.20;1.00;;;;;;5073338;28;20213;-66
2021/10/26 04:11:02;;;;;;;58.40;2.90;;;7.20;1.00;;;;;;5073164;28;20224;-65
2021/10/26 04:13:30;;;;;;;58.47;3.20;;;7.20;1.00;;;;;;5073269;28;20459;-66
2021/10/26 04:15:57;;;;;;;58.45;2.75;;;7.20;1.00;;;;;;5073085;28;20207;-66
2021/10/26 04:18:25;;;;;;;58.60;2.90;;;7.30;1.00;;;;;;5072755;28;20202;-66
2021/10/26 04:20:53;;;;;;;58.35;2.85;;;7.30;1.00;;;;;;5073041;28;20225;-68
2021/10/26 04:23:20;;;;;;;58.25;2.78;;;7.30;1.00;;;;;;5073014;28;20311;-67
2021/10/26 04:25:47;;;;;;;58.45;2.80;;;7.40;1.00;;;;;;5072583;28;20580;-66
2021/10/26 04:28:14;;;;;;;58.58;3.10;;;7.40;1.00;;;;;;5073129;28;20264;-66
2021/10/26 04:30:43;;;;;;;58.47;2.70;;;7.40;1.00;;;;;;5072881;28;20229;-66
2021/10/26 04:33:10;;;;;;;58.38;2.78;;;7.40;1.00;;;;;;5072948;28;20208;-66
2021/10/26 04:35:38;;;;;;;58.80;3.15;;;7.50;1.00;;;;;;5072521;28;20241;-65
2021/10/26 04:38:05;;;;;;;58.42;2.83;;;7.50;1.00;;;;;;5072609;28;20267;-66
2021/10/26 04:40:32;;;;;;;58.70;2.97;;;7.50;1.00;;;;;;5072780;28;20232;-66
2021/10/26 04:43:00;;;;;;;58.58;2.83;;;7.60;1.00;;;;;;5072784;28;20581;-67
2021/10/26 04:45:28;;;;;;;58.50;2.80;;;7.60;1.00;;;;;;5072478;28;20205;-67
2021/10/26 04:47:56;;;;;;;58.57;3.00;;;7.60;1.00;;;;;;5072645;28;20293;-68
2021/10/26 04:50:23;;;;;;;58.33;2.95;;;7.60;1.00;;;;;;5072316;28;20574;-66
2021/10/26 04:52:50;;;;;;;58.30;2.77;;;7.70;1.00;;;;;;5072384;28;20589;-66
2021/10/26 04:55:17;;;;;;;58.50;2.80;;;7.70;1.00;;;;;;5072202;28;20455;-66
2021/10/26 04:57:44;;;;;;;58.38;2.67;;;7.80;1.00;;;;;;5072071;28;20297;-66
2021/10/26 05:00:13;;;;;;;58.40;2.80;;;7.70;1.00;;;;;;5072373;28;20230;-67
2021/10/26 05:02:40;;;;;;;58.27;2.80;;;7.80;1.00;;;;;;5072325;28;20535;-66
2021/10/26 05:05:10;;;;;;;58.40;2.90;;;7.80;1.00;;;;;;5071826;28;20543;-67
2021/10/26 05:07:37;;;;;;;58.38;2.80;;;7.80;1.00;;;;;;5072200;28;20539;-66
2021/10/26 05:10:05;;;;;;;58.37;2.57;;;7.70;1.00;;;;;;5072034;28;20281;-67
2021/10/26 05:12:32;;;;;;;58.28;2.80;;;7.70;1.00;;;;;;5072095;28;20928;-66
2021/10/26 05:14:59;;;;;;;59.10;3.00;;;7.70;1.00;;;;;;5072075;28;20237;-66
2021/10/26 05:17:26;;;;;;;58.58;2.70;;;7.70;1.00;;;;;;5071796;28;20530;-67
2021/10/26 05:19:54;;;;;;;58.38;2.70;;;7.70;1.00;;;;;;5071880;28;20257;-68
2021/10/26 05:22:25;;;;;;;58.47;2.67;;;7.70;1.00;;;;;;5071969;28;20203;-66
2021/10/26 05:24:51;;;;;;;58.58;2.88;;;7.70;1.00;;;;;;5072059;28;20300;-68
2021/10/26 05:27:19;;;;;;;58.88;3.50;;;7.70;1.00;;;;;;5071842;28;20276;-66
2021/10/26 05:29:47;;;;;;;58.47;3.00;;;7.70;1.00;;;;;;5071775;28;20235;-66
2021/10/26 05:32:14;;;;;;;58.67;3.00;;;7.70;1.00;;;;;;5071382;28;20229;-67
2021/10/26 05:34:42;;;;;;;58.67;2.78;;;7.70;1.00;;;;;;5072063;28;20213;-65
2021/10/26 05:37:11;;;;;;;58.38;2.80;;;7.70;1.00;;;;;;5071841;28;20210;-66
2021/10/26 05:39:40;;;;;;;63.40;3.10;;;7.70;1.00;;;;;;5071922;28;20225;-66
2021/10/26 05:42:07;;;;;;;58.42;2.83;;;7.70;1.00;;;;;;5072043;28;20229;-66
2021/10/26 05:44:35;;;;;;;58.47;2.85;;;7.70;1.10;;;;;;5071900;28;20209;-67
2021/10/26 05:47:02;;;;;;;58.90;2.95;;;7.70;1.80;;;;;;5071329;28;20210;-66
2021/10/26 05:49:29;;;;;;;58.47;2.90;;;7.70;2.10;;;;;;5071623;28;20311;-67
2021/10/26 05:51:57;;;;;;;58.45;2.88;;;7.70;2.90;;;;;;5071812;28;20231;-66
2021/10/26 05:54:24;;;;;;;58.17;2.80;;;7.70;4.00;;;;;;5071755;28;20297;-66
2021/10/26 05:56:52;;;;;;;58.37;2.60;;;7.70;5.30;;;;;;5071354;28;20475;-67
2021/10/26 05:59:19;;;;;;;58.47;2.88;;;7.70;5.50;;;;;;5071747;28;20464;-67
2021/10/26 06:01:46;;;;;;;58.58;2.75;;;7.70;5.90;;;;;;5071399;28;20209;-66
2021/10/26 06:04:13;;;;;;;58.47;2.87;;;7.70;6.00;;;;;;5071678;28;20210;-67
2021/10/26 06:06:39;;;;;;;58.47;2.85;;;7.70;6.20;;;;;;5071255;28;20498;-67
2021/10/26 06:09:06;;;;;;;58.47;2.90;;;7.60;6.40;;;;;;5071448;28;20226;-66
2021/10/26 06:11:34;;;;;;;58.70;3.10;;;7.60;6.20;;;;;;5071459;28;20311;-67
2021/10/26 06:14:03;;;;;;;58.60;2.80;;;7.60;6.70;;;;;;5071313;28;20267;-68
2021/10/26 06:16:32;;;;;;;58.17;2.78;;;7.60;7.00;;;;;;5071395;28;20573;-66
2021/10/26 06:19:00;;;;;;;58.25;2.72;;;7.60;7.50;;;;;;5071496;28;20660;-67
2021/10/26 06:21:27;;;;;;;60.65;3.40;;;7.60;7.90;;;;;;5071353;28;20289;-67
2021/10/26 06:23:55;;;;;;;60.22;3.40;;;7.50;8.10;;;;;;5071622;28;20231;-66
2021/10/26 06:26:22;;;;;;;58.70;3.00;;;7.60;8.40;;;;;;5071178;28;20297;-67
2021/10/26 06:28:49;;;;;;;58.55;2.90;;;7.60;9.50;;;;;;5071149;28;20712;-67
2021/10/26 06:31:18;;;;;;;58.53;3.00;;;7.60;9.90;;;;;;5071454;28;20229;-67
2021/10/26 06:33:45;;;;;;;58.13;2.78;;;7.60;11.00;;;;;;5071182;28;20445;-66
2021/10/26 06:36:12;;;;;;;58.58;3.10;;;7.60;12.60;;;;;;5071036;28;20251;-67
2021/10/26 06:38:39;;;;;;;58.67;2.95;;;7.70;13.90;;;;;;5071301;28;20245;-66
2021/10/26 06:41:07;;;;;;;58.43;2.90;;;7.70;15.30;;;;;;5071266;28;20228;-67
2021/10/26 06:43:35;;;;;;;59.30;3.10;;;7.80;19.80;;;;;;5075115;28;20461;-67
2021/10/26 06:46:04;;;;;;;58.57;3.10;;;7.90;20.60;;;;;;5074694;28;20629;-67
2021/10/26 06:48:32;;;;;;;60.17;4.07;;;8.00;23.00;;;;;;5074904;28;20880;-67
2021/10/26 06:51:00;;;;;;;58.38;2.95;;;8.10;25.60;;;;;;5074628;28;20559;-67
2021/10/26 06:53:27;;;;;;;58.35;2.95;;;8.10;24.90;;;;;;5074970;28;20293;-66
2021/10/26 06:55:58;;;;;;;59.00;3.88;;;8.10;26.00;;;;;;5074431;28;20213;-67
2021/10/26 06:58:25;;;;;;;58.60;3.20;;;8.20;26.30;;;;;;5074915;28;20232;-66
2021/10/26 07:00:52;;;;;;;60.80;3.80;;;8.20;25.90;;;;;;5074687;28;20881;-66
2021/10/26 07:03:19;;;;;;;58.47;3.07;;;8.20;25.80;;;;;;5074612;28;20302;-67
2021/10/26 07:05:47;;;;;;;58.45;3.08;;;8.30;25.80;;;;;;5074240;28;20539;-67
2021/10/26 07:08:14;;;;;;;60.47;3.53;;;8.30;27.10;;;;;;5074616;28;20574;-67
2021/10/26 07:10:40;;;;;;;58.37;2.87;;;8.40;27.30;;;;;;5074465;28;20571;-67
2021/10/26 07:13:07;;;;;;;58.97;3.30;;;8.40;27.30;;;;;;5074408;28;20457;-67
2021/10/26 07:15:34;;;;;;;58.43;3.00;;;8.50;28.70;;;;;;5074224;28;20211;-66
2021/10/26 07:18:01;;;;;;;58.53;3.10;;;8.60;29.50;;;;;;5074249;28;20945;-67
2021/10/26 07:20:28;;;;;;;58.47;3.10;;;8.60;30.00;;;;;;5074154;28;20504;-67
2021/10/26 07:22:57;;;;;;;58.90;3.97;;;8.70;30.70;;;;;;5074129;28;20333;-67
2021/10/26 07:25:25;;;;;;;58.87;3.50;;;8.80;31.50;;;;;;5074084;28;21012;-67
2021/10/26 07:27:58;;;;;;;58.47;2.87;;;8.90;33.50;;;;;;5074089;28;20453;-67
2021/10/26 07:30:29;;;;;;;59.10;3.77;;;9.00;34.90;;;;;;5074178;28;20474;-67
2021/10/26 07:32:57;;;;;;;58.57;3.10;;;9.10;36.00;;;;;;5073915;28;20482;-67
2021/10/26 07:35:29;;;;;;;59.37;3.70;;;9.20;36.70;;;;;;5073715;28;20533;-67
2021/10/26 07:37:57;;;;;;;58.80;3.87;;;9.20;33.80;;;;;;5074181;28;20549;-67
2021/10/26 07:40:24;;;;;;;58.40;2.70;;;9.20;30.90;;;;;;5073886;28;20548;-67
2021/10/26 07:42:51;;;;;;;58.43;3.20;;;9.20;28.10;;;;;;5073822;28;20531;-66
2021/10/26 07:45:18;;;;;;;58.17;2.87;;;9.20;25.90;;;;;;5073954;28;20536;-67
2021/10/26 07:47:44;;;;;;;58.57;3.00;;;9.20;22.60;;;;;;5073444;28;20449;-67
2021/10/26 07:50:11;;;;;;;58.90;3.47;;;9.20;21.80;;;;;;5073883;28;20477;-66
2021/10/26 07:52:41;;;;;;;58.47;3.07;;;9.30;22.70;;;;;;5073639;28;20572;-67
2021/10/26 07:55:09;;;;;;;58.57;3.30;;;9.40;24.50;;;;;;5073060;28;20845;-66
2021/10/26 07:57:36;;;;;;;58.70;3.67;;;9.60;26.40;;;;;;5073389;28;20444;-67
2021/10/26 08:00:05;;;;;;;58.47;2.77;;;9.80;28.60;;;;;;5073498;28;20835;-66
2021/10/26 08:02:31;;;;;;;58.90;3.10;;;10.00;29.80;;;;;;5073295;28;20481;-66
2021/10/26 08:04:58;;;;;;;58.47;2.87;;;10.20;31.50;;;;;;5073592;28;20453;-67
2021/10/26 08:07:26;;;;;;;58.47;2.93;;;10.30;31.00;;;;;;5073270;28;20484;-66
2021/10/26 08:09:55;;;;;;;58.27;2.90;;;10.40;30.60;;;;;;5073390;28;20558;-66
2021/10/26 08:12:25;;;;;;;58.23;2.90;;;10.40;28.00;;;;;;5073177;28;20859;-66
2021/10/26 08:14:52;;;;;;;58.73;3.37;;;10.40;27.20;;;;;;5073381;28;20472;-67
2021/10/26 08:17:19;;;;;;;58.27;3.07;;;10.50;26.50;;;;;;5073264;28;20453;-66
2021/10/26 08:19:49;;;;;;;58.07;2.67;;;10.50;26.80;;;;;;5073226;28;20558;-67
2021/10/26 08:22:18;;;;;;;58.27;2.97;;;10.60;26.80;;;;;;5073123;28;20442;-66
2021/10/26 08:24:45;;;;;;;58.47;2.93;;;10.60;25.90;;;;;;5073074;28;20541;-67
2021/10/26 08:27:15;;;;;;;58.37;3.20;;;10.70;22.50;;;;;;5072754;28;20454;-66
2021/10/26 08:29:53;;;;;;;58.47;3.07;;;10.80;23.40;;;;;;5072844;28;20478;-67
2021/10/26 08:38:00;;;;;;;58.07;2.80;;;11.10;23.10;;;;;;5069681;28;20902;-68
2021/10/26 08:40:32;;;;;;;58.40;2.90;;;11.10;16.20;;;;;;5072304;28;21041;-69
2021/10/26 08:43:03;;;;;;;58.13;2.90;;;11.10;15.70;;;;;;5072486;28;20534;-66
2021/10/26 08:45:32;;;;;;;58.23;2.60;;;11.10;14.30;;;;;;5071965;28;21006;-66
2021/10/26 08:48:01;;;;;;;58.37;2.70;;;11.20;12.30;;;;;;5072552;28;20518;-67
2021/10/26 08:50:32;;;;;;;58.17;2.50;;;11.30;10.00;;;;;;5070242;28;20467;-69
2021/10/26 08:53:00;;;;;;;58.23;2.87;;;11.50;14.70;;;;;;5072649;28;20475;-67
2021/10/26 08:55:27;;;;;;;58.27;3.10;;;11.80;10.00;;;;;;5071924;28;20451;-67
2021/10/26 08:57:55;;;;;;;58.47;3.10;;;12.10;14.30;;;;;;5072346;28;20468;-66
2021/10/26 09:00:23;;;;;;;58.30;2.80;;;12.30;16.60;;;;;;5072308;28;20514;-66
2021/10/26 09:02:53;;;;;;;58.30;2.80;;;12.50;14.70;;;;;;5072370;28;20447;-67
2021/10/26 09:05:23;;;;;;;58.60;3.20;;;12.70;14.00;;;;;;5071868;28;20966;-69
2021/10/26 09:08:01;;;;;;;59.20;3.40;;;12.90;14.50;;;;;;5072363;28;20816;-66
2021/10/26 09:10:32;;;;;;;58.40;3.30;;;13.00;11.30;;;;;;5072247;28;20463;-66
2021/10/26 09:18:42;;;;;;;58.77;3.43;;;13.50;3.90;;;;;;5072254;28;20470;-67
2021/10/26 09:21:27;;;;;;;58.33;2.83;;;13.70;8.30;;;;;;5071776;28;20502;-67
2021/10/26 09:23:56;;;;;;;58.33;2.80;;;14.00;9.80;;;;;;5072408;28;20531;-69
2021/10/26 09:26:25;;;;;;;58.07;2.83;;;14.30;5.20;;;;;;5071997;28;20827;-67
2021/10/26 09:28:56;;;;;;;58.07;2.80;;;14.70;6.70;;;;;;5071943;28;20460;-67
2021/10/26 09:31:28;;;;;;;58.90;3.60;;;15.50;26.70;;;;;;5071044;28;20886;-66
2021/10/26 09:34:02;;;;;;;59.57;3.80;;;16.70;51.80;;;;;;5071860;28;20450;-66
2021/10/26 09:36:32;;;;;;;59.23;3.03;;;18.00;1.00;;;;;;5070703;28;20545;-66
2021/10/26 09:39:15;;;;;;;58.20;2.50;;;19.30;1.00;;;;;;5053737;28;20828;-67
2021/10/26 09:42:07;;;;;;;58.50;3.23;;;20.50;1.00;;;;;;5051902;28;20452;-66
2021/10/26 09:44:37;;;;;;;58.07;2.50;;;21.60;1.00;;;;;;5051490;28;20950;-66
2021/10/26 09:47:07;;;;;;;58.57;2.90;;;22.70;1.00;;;;;;5051558;28;20444;-67
2021/10/26 09:49:39;;;;;;;58.07;2.37;;;23.20;1.00;;;;;;5051759;28;20558;-66
2021/10/26 09:52:17;;;;;;;58.30;2.50;;;22.70;1.00;;;;;;5051771;28;20570;-67
2021/10/26 09:54:47;;;;;;;57.60;2.57;;;21.90;1.00;;;;;;5051343;28;20447;-63
2021/10/26 09:57:15;;;;;;;58.50;2.80;;;21.00;1.00;;;;;;5050576;28;20451;-64
2021/10/26 09:59:47;;;;;;;58.07;2.20;;;20.30;1.00;;;;;;5051513;28;20916;-65
2021/10/26 10:02:17;;;;;;;58.07;2.80;;;19.70;1.00;;;;;;5051912;28;20877;-66
2021/10/26 10:04:45;;;;;;;58.17;2.57;;;19.30;1.00;;;;;;5051978;28;20444;-66
2021/10/26 10:07:12;;;;;;;58.30;2.47;;;19.30;1.00;;;;;;5051441;28;20486;-66
2021/10/26 10:09:39;;;;;;;58.37;2.60;;;19.30;1.00;;;;;;5050113;28;20839;-65
2021/10/26 10:12:08;;;;;;;58.07;2.30;;;19.50;1.00;;;;;;5051577;28;21064;-65
2021/10/26 10:14:35;;;;;;;58.10;2.30;;;19.90;1.00;;;;;;5051134;28;20542;-64
2021/10/26 10:17:04;;;;;;;57.57;2.20;;;20.40;1.00;;;;;;5051215;28;21208;-64
2021/10/26 10:19:33;;;;;;;57.90;2.40;;;21.20;1.00;;;;;;5055217;28;20546;-66
2021/10/26 10:22:05;;;;;;;57.67;2.50;;;21.80;1.00;;;;;;5067393;28;20937;-65
2021/10/26 10:24:38;;;;;;;58.10;2.77;;;22.20;1.00;;;;;;5075561;28;20529;-68
2021/10/26 10:27:06;;;;;;;59.13;2.40;;;22.40;1.00;;;;;;5075123;28;20483;-66
2021/10/26 10:29:34;;;;;;;58.17;2.47;;;22.90;1.00;;;;;;5075293;28;20474;-66
2021/10/26 10:32:01;;;;;;;57.57;2.20;;;23.80;1.00;;;;;;5075303;28;21105;-67
2021/10/26 10:34:29;;;;;;;57.70;2.00;;;25.00;1.00;;;;;;5075039;28;20486;-68
2021/10/26 10:36:58;;;;;;;57.97;2.17;;;25.80;1.00;;;;;;5075011;28;20485;-67
2021/10/26 10:39:33;;;;;;;58.20;2.50;;;27.40;1.00;;;;;;5074896;28;20463;-68
2021/10/26 10:42:22;;;;;;;57.37;2.07;;;28.50;1.00;;;;;;5074592;28;20443;-67
2021/10/26 10:44:49;;;;;;;58.53;2.67;;;28.30;1.00;;;;;;5074501;28;20447;-66
2021/10/26 10:47:47;;;;;;;57.70;2.30;;;27.90;1.00;;;;;;5054754;28;20440;-65
2021/10/26 10:50:33;;;;;;;57.73;2.10;;;28.20;1.00;;;;;;5012753;28;20515;-65
2021/10/26 10:53:16;;;;;;;58.10;3.37;;;27.70;1.00;;;;;;5050620;28;20480;-64
2021/10/26 10:55:47;;;;;;;57.67;2.00;;;26.70;1.00;;;;;;5054419;28;20448;-66
2021/10/26 10:58:29;;;;;;;57.53;2.10;;;25.80;1.00;;;;;;5063483;28;20536;-66
2021/10/26 11:01:22;;;;;;;57.53;2.17;;;24.80;1.00;;;;;;5074393;28;20522;-64
2021/10/26 11:03:49;;;;;;;57.77;2.30;;;24.00;1.00;;;;;;5074763;28;20478;-66
2021/10/26 11:06:50;;;;;;;57.83;2.30;;;23.70;1.00;;;;;;5074177;28;20967;-65
2021/10/26 11:09:37;;;;;;;57.80;2.03;;;24.90;1.00;;;;;;5072896;28;20471;-66
2021/10/26 11:12:17;;;;;;;57.50;2.20;;;25.90;1.00;;;;;;5074259;28;20479;-65
2021/10/26 11:14:54;;;;;;;57.70;2.20;;;25.90;1.00;;;;;;5074282;28;20501;-65
2021/10/26 11:17:59;;;;;;;58.10;2.40;;;25.30;1.00;;;;;;5074150;28;20439;-65
2021/10/26 11:20:45;;;;;;;57.77;2.30;;;24.50;1.00;;;;;;5073749;28;20546;-65
2021/10/26 11:23:17;;;;;;;58.20;2.60;;;23.50;1.00;;;;;;5074371;28;20479;-64
2021/10/26 11:25:46;;;;;;;57.87;2.23;;;22.70;1.00;;;;;;5074088;28;20494;-65
2021/10/26 11:28:50;;;;;;;57.87;2.30;;;22.10;1.00;;;;;;5072715;28;20815;-64
2021/10/26 11:31:24;;;;;;;58.07;2.60;;;21.50;1.00;;;;;;5074004;28;21025;-64
2021/10/26 11:33:57;;;;;;;59.13;3.50;;;21.30;1.00;;;;;;5074185;28;20483;-65
2021/10/26 11:36:30;;;;;;;57.83;2.40;;;21.50;1.00;;;;;;5073848;28;20450;-67
2021/10/26 11:38:59;;;;;;;57.97;2.30;;;21.90;1.00;;;;;;5070076;28;20451;-65
2021/10/26 11:41:28;;;;;;;58.10;2.73;;;22.70;1.00;;;;;;5073485;28;20545;-65
2021/10/26 11:43:57;;;;;;;58.20;2.50;;;23.20;1.00;;;;;;5073713;28;20443;-65
2021/10/26 11:46:30;;;;;;;57.83;2.50;;;23.20;1.00;;;;;;5073612;28;20829;-65
2021/10/26 11:49:02;;;;;;;57.83;2.10;;;23.20;1.00;;;;;;5073901;28;20479;-64
2021/10/26 11:51:32;;;;;;;58.10;2.43;;;22.90;1.00;;;;;;5073505;28;20535;-65
2021/10/26 11:54:02;;;;;;;58.50;2.87;;;22.60;1.00;;;;;;5073692;28;20517;-65
2021/10/26 11:56:32;;;;;;;58.00;2.30;;;22.40;1.00;;;;;;5073338;28;20452;-65
2021/10/26 11:59:03;;;;;;;57.90;2.30;;;22.10;1.00;;;;;;5073641;28;20454;-66
2021/10/26 12:01:35;;;;;;;58.17;2.50;;;21.60;1.00;;;;;;5073181;28;20486;-64
2021/10/26 12:04:02;;;;;;;57.93;2.40;;;21.10;1.00;;;;;;5073762;28;20447;-66
2021/10/26 12:06:31;;;;;;;58.00;2.30;;;20.50;1.00;;;;;;5073147;28;20522;-65
2021/10/26 12:08:59;;;;;;;57.63;2.50;;;19.90;1.00;;;;;;5073199;28;20479;-65
2021/10/26 12:11:31;;;;;;;57.47;2.50;;;19.40;1.00;;;;;;5068823;28;20447;-64
2021/10/26 12:14:29;;;;;;;57.67;2.40;;;19.10;1.00;;;;;;5072923;28;20489;-65
2021/10/26 12:17:12;;;;;;;58.30;2.50;;;18.90;1.00;;;;;;5073022;28;20913;-65
2021/10/26 12:19:42;;;;;;;58.10;2.67;;;18.60;1.00;;;;;;5073053;28;20541;-66
2021/10/26 12:22:15;;;;;;;58.07;2.50;;;18.50;1.00;;;;;;5072956;28;20880;-66
2021/10/26 12:24:47;;;;;;;57.90;2.53;;;18.40;1.00;;;;;;5072949;28;20448;-66
2021/10/26 12:27:14;;;;;;;58.23;2.40;;;18.30;1.00;;;;;;5072888;28;20427;-65
2021/10/26 12:29:43;;;;;;;58.07;2.50;;;18.10;1.00;;;;;;5073061;28;20845;-65
2021/10/26 12:32:11;;;;;;;57.97;3.00;;;18.00;1.00;;;;;;5072676;28;20961;-66
2021/10/26 12:34:42;;;;;;;58.03;2.50;;;17.90;1.00;;;;;;5072840;28;20959;-67
2021/10/26 12:37:36;;;;;;;58.03;2.70;;;17.80;1.00;;;;;;5072494;28;20909;-66
2021/10/26 12:40:11;;;;;;;57.87;2.50;;;17.70;1.00;;;;;;5036491;28;20489;-66
2021/10/26 12:42:40;;;;;;;57.37;2.70;;;17.60;1.00;;;;;;5068525;28;21095;-66
2021/10/26 12:45:11;;;;;;;58.10;2.30;;;17.60;1.00;;;;;;5072092;28;20538;-66
2021/10/26 12:48:00;;;;;;;57.57;2.30;;;17.70;1.00;;;;;;5072168;28;20857;-66
2021/10/26 12:50:44;;;;;;;58.00;2.57;;;18.10;1.00;;;;;;5071855;28;20470;-66
2021/10/26 12:53:19;;;;;;;58.13;2.50;;;18.60;1.00;;;;;;5072201;28;21048;-65
2021/10/26 12:55:49;;;;;;;59.93;4.30;;;19.00;1.00;;;;;;5072034;28;20537;-66
2021/10/26 12:58:41;;;;;;;58.27;2.60;;;19.00;1.00;;;;;;5072693;28;20450;-66
2021/10/26 13:01:25;;;;;;;58.10;2.77;;;18.90;1.00;;;;;;5071708;28;20849;-66
2021/10/26 13:04:11;;;;;;;58.07;2.63;;;18.70;1.00;;;;;;5052381;28;20966;-66
2021/10/26 13:06:50;;;;;;;57.90;2.40;;;18.60;1.00;;;;;;5052474;28;20448;-67
2021/10/26 13:09:35;;;;;;;58.30;2.40;;;18.40;1.00;;;;;;5052417;28;20471;-66
2021/10/26 13:12:07;;;;;;;58.37;2.40;;;18.20;1.00;;;;;;5052010;28;20451;-70
2021/10/26 13:14:41;;;;;;;58.30;2.70;;;18.00;1.00;;;;;;5060647;28;20487;-66